Time;durP1;ratioP1;P1;durP2;ratioP2;P2;SDS_P1;SDS_P2;PMS_P1;PMS_P2;Temp;Humidity;BMP_temperature;BMP_pressure;BME280_temperature;BME280_humidity;BME280_pressure;Samples;Min_cycle;Max_cycle;Signal;HPM_P1;HPM_P2
2021/12/27 00:02:25;;;;;;;11.63;10.63;;;;;;;21.43;28.76;94585.69;4919967;28;102783;-51
2021/12/27 00:04:51;;;;;;;10.70;9.67;;;;;;;21.41;28.87;94588.66;4920589;28;102847;-51
2021/12/27 00:07:17;;;;;;;12.13;11.03;;;;;;;21.43;28.76;94586.47;4913772;28;103622;-51
2021/12/27 00:09:43;;;;;;;10.93;10.00;;;;;;;21.43;28.89;94598.97;4919557;28;102765;-51
2021/12/27 00:12:09;;;;;;;11.73;10.50;;;;;;;21.43;28.84;94583.03;4919137;28;102844;-51
2021/12/27 00:14:34;;;;;;;11.27;10.27;;;;;;;21.44;28.77;94596.00;4920028;28;102776;-51
2021/12/27 00:17:00;;;;;;;11.20;10.20;;;;;;;21.42;28.63;94589.44;4901708;28;102794;-51
2021/12/27 00:19:25;;;;;;;10.80;9.70;;;;;;;21.41;28.71;94599.28;4895102;28;102738;-51
2021/12/27 00:21:51;;;;;;;10.60;9.60;;;;;;;21.42;28.54;94584.13;4898574;28;103341;-51
2021/12/27 00:24:17;;;;;;;11.00;10.00;;;;;;;21.40;28.87;94595.06;4900940;28;102820;-51
2021/12/27 00:26:44;;;;;;;11.03;10.00;;;;;;;21.42;28.75;94592.88;4900415;28;102894;-51
2021/12/27 00:29:10;;;;;;;10.63;9.73;;;;;;;21.41;28.70;94580.69;4896995;28;103644;-51
2021/12/27 00:31:36;;;;;;;11.20;10.10;;;;;;;21.40;28.78;94579.13;4898661;28;103462;-51
2021/12/27 00:34:02;;;;;;;10.40;9.40;;;;;;;21.41;29.02;94578.03;4901473;28;103226;-51
2021/12/27 00:36:27;;;;;;;10.97;9.97;;;;;;;21.40;28.76;94576.47;4900012;28;103352;-51
2021/12/27 00:38:53;;;;;;;10.87;9.80;;;;;;;21.41;28.78;94567.41;4900888;28;102785;-50
2021/12/27 00:41:18;;;;;;;11.27;10.27;;;;;;;21.40;28.83;94587.09;4895237;28;102753;-51
2021/12/27 00:43:44;;;;;;;10.60;9.60;;;;;;;21.40;28.78;94576.47;4899877;28;102802;-51
2021/12/27 00:46:09;;;;;;;10.50;9.60;;;;;;;21.39;28.69;94577.53;4898770;28;105507;-51
2021/12/27 00:48:35;;;;;;;11.57;10.40;;;;;;;21.40;28.88;94583.66;4900814;28;104223;-50
2021/12/27 00:51:00;;;;;;;9.73;8.83;;;;;;;21.40;28.80;94571.13;4900011;28;102677;-51
2021/12/27 00:53:26;;;;;;;10.27;9.37;;;;;;;21.39;28.68;94579.41;4895939;28;102697;-51
2021/12/27 00:55:52;;;;;;;10.83;9.83;;;;;;;21.39;28.95;94582.88;4900094;28;103242;-51
2021/12/27 00:58:17;;;;;;;9.83;8.90;;;;;;;21.39;28.87;94576.75;4899681;28;103561;-51
2021/12/27 01:00:43;;;;;;;9.80;8.90;;;;;;;21.40;29.01;94583.66;4898569;28;102799;-51
2021/12/27 01:03:09;;;;;;;10.07;9.17;;;;;;;21.39;28.92;94574.09;4895161;28;102613;-51
2021/12/27 01:05:34;;;;;;;9.80;9.00;;;;;;;21.40;28.82;94581.00;4899851;28;103218;-50
2021/12/27 01:08:00;;;;;;;10.30;9.30;;;;;;;21.39;28.80;94584.75;4900230;28;102932;-50
2021/12/27 01:13:16;;;;;;;10.17;9.27;;;;;;;21.39;28.79;94582.06;4899622;28;102813;-51
2021/12/27 01:15:49;;;;;;;9.57;8.77;;;;;;;21.38;28.84;94583.94;4905858;28;102714;-50
2021/12/27 01:18:16;;;;;;;10.43;9.53;;;;;;;21.39;28.82;94598.03;4919330;28;103326;-51
2021/12/27 01:20:43;;;;;;;10.10;9.20;;;;;;;21.39;28.81;94587.41;4918485;28;103088;-51
2021/12/27 01:23:09;;;;;;;9.73;8.93;;;;;;;21.37;28.97;94577.06;4919494;28;102771;-51
2021/12/27 01:25:34;;;;;;;10.43;9.50;;;;;;;21.38;28.78;94583.16;4912078;28;103050;-51
2021/12/27 01:28:00;;;;;;;9.27;8.47;;;;;;;21.39;28.60;94577.53;4918814;28;102735;-51
2021/12/27 01:30:26;;;;;;;9.47;8.57;;;;;;;21.39;28.75;94568.78;4918237;28;103745;-51
2021/12/27 01:32:59;;;;;;;10.20;9.30;;;;;;;21.38;29.01;94577.84;4918357;28;102845;-51
2021/12/27 01:35:26;;;;;;;10.43;9.43;;;;;;;21.40;28.78;94583.66;4914597;28;103258;-51
2021/12/27 01:37:53;;;;;;;9.60;8.73;;;;;;;21.40;28.56;94557.06;4919030;28;102740;-51
2021/12/27 01:40:21;;;;;;;10.17;9.27;;;;;;;21.39;28.64;94531.59;4919039;28;103231;-51
2021/12/27 01:43:09;;;;;;;9.20;8.40;;;;;;;21.38;28.92;94573.31;4918964;28;102696;-51
2021/12/27 01:45:46;;;;;;;9.97;9.10;;;;;;;21.39;28.81;94552.84;4918708;28;102702;-50
2021/12/27 01:48:13;;;;;;;9.40;8.60;;;;;;;21.37;28.80;94553.16;4913962;28;103010;-51
2021/12/27 01:50:42;;;;;;;9.87;8.97;;;;;;;21.38;28.78;94569.88;4917397;28;102649;-51
2021/12/27 01:53:08;;;;;;;9.10;8.30;;;;;;;21.39;28.75;94582.06;4919239;28;103094;-51
2021/12/27 01:55:34;;;;;;;9.20;8.50;;;;;;;21.38;28.82;94551.28;4919990;28;103344;-51
2021/12/27 01:58:00;;;;;;;9.20;7.60;;;;;;;21.38;28.77;94561.91;4916623;28;103357;-51
2021/12/27 02:00:26;;;;;;;9.40;8.60;;;;;;;21.38;28.78;94548.63;4921895;28;102700;-51
2021/12/27 02:02:52;;;;;;;10.17;9.17;;;;;;;21.39;28.83;94553.63;4922540;28;102756;-50
2021/12/27 02:05:17;;;;;;;9.13;8.27;;;;;;;21.38;28.82;94540.66;4920961;28;103568;-51
2021/12/27 02:07:43;;;;;;;9.70;8.80;;;;;;;21.39;28.83;94550.19;4904300;28;104330;-50
2021/12/27 02:10:10;;;;;;;10.00;9.10;;;;;;;21.40;28.76;94546.44;4916567;28;102759;-51
2021/12/27 02:12:36;;;;;;;9.37;8.47;;;;;;;21.39;28.76;94550.97;4922478;28;102745;-51
2021/12/27 02:15:07;;;;;;;8.57;7.77;;;;;;;21.40;28.76;94559.72;4901383;28;102913;-50
2021/12/27 02:17:34;;;;;;;8.43;7.63;;;;;;;21.41;28.87;94548.00;4902626;28;102716;-53
2021/12/27 02:19:59;;;;;;;8.50;7.77;;;;;;;21.40;28.79;94544.56;4897277;28;102744;-51
2021/12/27 02:22:25;;;;;;;9.23;8.07;;;;;;;21.39;28.76;94537.69;4903205;28;102795;-51
2021/12/27 02:24:50;;;;;;;8.67;7.93;;;;;;;21.39;28.84;94542.22;4902198;28;102704;-51
2021/12/27 02:27:16;;;;;;;9.03;8.23;;;;;;;21.39;28.75;94534.25;4901582;28;103567;-50
2021/12/27 02:29:43;;;;;;;8.53;7.73;;;;;;;21.40;28.88;94535.81;4901843;28;103314;-51
2021/12/27 02:32:09;;;;;;;8.80;8.00;;;;;;;21.40;28.91;94543.78;4897564;28;102887;-51
2021/12/27 02:34:34;;;;;;;9.00;8.10;;;;;;;21.38;28.92;94533.47;4901778;28;102991;-51
2021/12/27 02:37:00;;;;;;;9.20;8.30;;;;;;;21.39;29.17;94527.06;4902167;28;103296;-51
2021/12/27 02:39:26;;;;;;;7.83;7.13;;;;;;;21.39;28.91;94520.97;4900466;28;102787;-51
2021/12/27 02:41:54;;;;;;;9.33;8.47;;;;;;;21.39;28.82;94532.38;4897051;28;102887;-50
2021/12/27 02:44:19;;;;;;;7.70;7.03;;;;;;;21.40;28.98;94522.53;4901647;28;103377;-50
2021/12/27 02:46:45;;;;;;;7.23;6.63;;;;;;;21.39;28.91;94516.44;4901647;28;103489;-51
2021/12/27 02:49:10;;;;;;;8.33;7.50;;;;;;;21.39;28.80;94510.34;4901338;28;103343;-51
2021/12/27 02:51:36;;;;;;;9.70;8.87;;;;;;;21.39;28.92;94510.34;4902574;28;102741;-51
2021/12/27 02:54:01;;;;;;;8.97;8.17;;;;;;;21.39;28.91;94505.78;4896847;28;103342;-50
2021/12/27 02:56:29;;;;;;;8.10;7.40;;;;;;;21.39;28.97;94507.66;4901946;28;102947;-51
2021/12/27 02:58:56;;;;;;;9.23;8.27;;;;;;;21.39;28.97;94510.34;4901941;28;102773;-51
2021/12/27 03:01:23;;;;;;;8.60;7.90;;;;;;;21.40;28.78;94512.69;4902631;28;102650;-51
2021/12/27 03:03:50;;;;;;;8.20;7.40;;;;;;;21.39;28.90;94505.78;4895958;28;102976;-51
2021/12/27 03:06:16;;;;;;;8.50;7.70;;;;;;;21.38;29.04;94508.75;4901348;28;103123;-51
2021/12/27 03:08:44;;;;;;;7.77;7.07;;;;;;;21.40;29.01;94525.19;4901641;28;102734;-51
2021/12/27 03:11:11;;;;;;;8.20;7.50;;;;;;;21.38;28.89;94517.53;4901365;28;102863;-51
2021/12/27 03:13:40;;;;;;;7.80;7.10;;;;;;;21.38;28.66;94519.41;4901186;28;102658;-50
2021/12/27 03:16:11;;;;;;;7.57;6.90;;;;;;;21.38;28.89;94514.88;4907182;28;102901;-50
2021/12/27 03:18:40;;;;;;;8.80;8.00;;;;;;;21.39;28.96;94507.66;4919947;28;102746;-51
2021/12/27 03:21:06;;;;;;;8.70;7.90;;;;;;;21.40;29.01;94501.25;4921597;28;102810;-51
2021/12/27 03:23:32;;;;;;;8.80;7.90;;;;;;;21.39;28.89;94503.13;4920572;28;103343;-50
2021/12/27 03:25:58;;;;;;;8.07;7.37;;;;;;;21.39;28.92;94511.13;4915079;28;102764;-50
2021/12/27 03:28:24;;;;;;;7.80;7.10;;;;;;;21.39;29.05;94511.13;4920102;28;103088;-51
2021/12/27 03:30:50;;;;;;;8.37;7.67;;;;;;;21.38;29.10;94504.22;4920235;28;102889;-51
2021/12/27 03:33:20;;;;;;;8.10;7.50;;;;;;;21.40;29.02;94507.38;4920013;28;104084;-50
2021/12/27 03:36:01;;;;;;;8.47;7.73;;;;;;;21.39;28.70;94505.78;4920254;28;102823;-51
2021/12/27 03:38:29;;;;;;;7.63;7.03;;;;;;;21.40;28.94;94499.38;4914248;28;102804;-51
2021/12/27 03:40:55;;;;;;;8.13;7.43;;;;;;;21.40;29.03;94496.72;4920539;28;102808;-51
2021/12/27 03:43:20;;;;;;;7.80;7.10;;;;;;;21.41;28.82;94498.28;4920699;28;103143;-51
2021/12/27 03:45:46;;;;;;;8.10;7.40;;;;;;;21.42;28.87;94491.88;4920555;28;103150;-50
2021/12/27 03:48:12;;;;;;;8.30;7.60;;;;;;;21.42;28.85;94493.75;4915001;28;102814;-51
2021/12/27 03:50:39;;;;;;;7.80;7.00;;;;;;;21.42;28.96;94493.75;4920343;28;103312;-50
2021/12/27 03:53:05;;;;;;;7.60;6.90;;;;;;;21.42;28.97;94493.75;4919396;28;104468;-51
2021/12/27 03:55:31;;;;;;;7.40;6.80;;;;;;;21.42;28.89;94483.91;4919536;28;103319;-51
2021/12/27 03:58:07;;;;;;;7.30;6.70;;;;;;;21.41;29.07;94484.22;4920436;28;102782;-51
2021/12/27 04:01:21;;;;;;;7.10;6.47;;;;;;;21.43;28.86;94484.69;4913869;28;102810;-50
2021/12/27 04:03:21;;;;;;;7.63;7.00;;;;;;;21.42;29.00;94472.50;4915003;28;103779;-50
2021/12/27 04:05:48;;;;;;;7.33;6.73;;;;;;;21.42;28.89;94472.50;4919881;28;102913;-51
2021/12/27 04:08:17;;;;;;;8.03;7.33;;;;;;;21.43;28.77;94474.06;4920315;28;102835;-51
2021/12/27 04:10:43;;;;;;;7.20;6.60;;;;;;;21.43;28.96;94474.84;4914515;28;102811;-51
2021/12/27 04:13:10;;;;;;;8.23;7.47;;;;;;;21.43;28.93;94482.81;4920105;28;103954;-51
2021/12/27 04:15:37;;;;;;;7.70;7.00;;;;;;;21.43;28.84;94484.69;4912808;28;103277;-50
2021/12/27 04:18:03;;;;;;;6.67;6.07;;;;;;;21.43;28.95;94488.13;4898677;28;102645;-50
2021/12/27 04:20:29;;;;;;;7.50;6.80;;;;;;;21.44;29.04;94496.91;4899299;28;103225;-51
2021/12/27 04:22:54;;;;;;;7.10;6.40;;;;;;;21.44;28.79;94499.56;4896845;28;103358;-51
2021/12/27 04:25:20;;;;;;;6.57;5.97;;;;;;;21.42;28.73;94497.19;4900229;28;102851;-51
2021/12/27 04:27:47;;;;;;;7.27;6.57;;;;;;;21.42;29.05;94499.88;4900530;28;103188;-51
2021/12/27 04:30:14;;;;;;;7.07;6.47;;;;;;;21.42;29.04;94505.19;4899893;28;102859;-51
2021/12/27 04:32:40;;;;;;;6.90;6.37;;;;;;;21.41;29.02;94508.16;4894149;28;102890;-51
2021/12/27 04:35:07;;;;;;;7.10;6.50;;;;;;;21.41;29.15;94502.81;4900443;28;102820;-51
2021/12/27 04:37:32;;;;;;;7.73;6.57;;;;;;;21.40;28.96;94493.28;4899875;28;102752;-51
2021/12/27 04:39:58;;;;;;;7.20;6.60;;;;;;;21.40;29.06;94498.59;4900476;28;102947;-51
2021/12/27 04:42:26;;;;;;;7.47;6.77;;;;;;;21.40;29.05;94501.25;4899786;28;103589;-51
2021/12/27 04:44:51;;;;;;;6.37;5.83;;;;;;;21.40;28.87;94503.91;4894886;28;103304;-51
2021/12/27 04:47:18;;;;;;;7.60;6.90;;;;;;;21.40;29.03;94507.38;4899619;28;102707;-51
2021/12/27 04:49:44;;;;;;;6.90;6.40;;;;;;;21.39;29.06;94505.00;4900313;28;102718;-51
2021/12/27 04:52:10;;;;;;;7.20;6.53;;;;;;;21.39;29.01;94499.69;4900389;28;103412;-51
2021/12/27 04:54:36;;;;;;;6.80;6.20;;;;;;;21.38;28.84;94503.44;4894462;28;103593;-51
2021/12/27 04:57:03;;;;;;;6.67;6.07;;;;;;;21.37;28.89;94501.88;4899987;28;102713;-51
2021/12/27 04:59:28;;;;;;;6.73;6.17;;;;;;;21.39;29.14;94505.00;4882565;28;102812;-51
2021/12/27 05:01:54;;;;;;;7.07;6.47;;;;;;;21.38;28.91;94503.44;4899982;28;102721;-51
2021/12/27 05:04:20;;;;;;;7.10;6.50;;;;;;;21.39;28.98;94513.00;4900016;28;102737;-51
2021/12/27 05:06:45;;;;;;;7.37;6.67;;;;;;;21.38;29.02;94511.41;4892507;28;102690;-51
2021/12/27 05:09:11;;;;;;;6.20;5.70;;;;;;;21.38;28.88;94522.06;4899656;28;102564;-51
2021/12/27 05:11:37;;;;;;;6.80;6.30;;;;;;;21.37;29.09;94529.25;4899506;28;102688;-51
2021/12/27 05:14:03;;;;;;;7.00;6.40;;;;;;;21.37;29.10;94518.63;4899758;28;102791;-51
2021/12/27 05:16:29;;;;;;;6.03;5.53;;;;;;;21.38;28.74;94514.88;4908036;28;102796;-51
2021/12/27 05:18:55;;;;;;;6.33;5.83;;;;;;;21.37;28.93;94507.97;4919138;28;103285;-51
2021/12/27 05:21:20;;;;;;;6.70;6.00;;;;;;;21.38;28.82;94500.78;4919239;28;102906;-51
2021/12/27 05:23:46;;;;;;;6.40;5.90;;;;;;;21.38;29.02;94500.78;4918819;28;102709;-51
2021/12/27 05:26:12;;;;;;;7.10;6.50;;;;;;;21.38;28.95;94500.78;4919051;28;102834;-51
2021/12/27 05:28:37;;;;;;;7.70;7.00;;;;;;;21.37;28.86;94501.88;4914092;28;103397;-51
2021/12/27 05:31:03;;;;;;;6.90;6.40;;;;;;;21.36;28.83;94500.31;4921167;28;102617;-51
2021/12/27 05:33:28;;;;;;;6.73;6.23;;;;;;;21.37;29.06;94507.19;4922672;28;102681;-51
2021/12/27 05:35:54;;;;;;;7.13;6.53;;;;;;;21.36;29.06;94509.06;4922801;28;102728;-51
2021/12/27 05:38:19;;;;;;;6.77;6.23;;;;;;;21.37;28.89;94504.53;4917735;28;103051;-51
2021/12/27 05:40:45;;;;;;;6.63;6.13;;;;;;;21.35;28.91;94512.03;4923058;28;102907;-51
2021/12/27 05:43:11;;;;;;;6.93;6.37;;;;;;;21.36;28.86;94501.09;4923308;28;102752;-51
2021/12/27 05:45:37;;;;;;;7.00;6.40;;;;;;;21.35;28.99;94515.47;4922350;28;103212;-51
2021/12/27 05:48:04;;;;;;;6.63;6.13;;;;;;;21.35;29.03;94509.38;4923177;28;102835;-51
2021/12/27 05:50:30;;;;;;;6.40;5.90;;;;;;;21.36;28.88;94508.28;4917525;28;103733;-51
2021/12/27 05:52:56;;;;;;;6.80;6.30;;;;;;;21.36;28.89;94505.63;4922717;28;103237;-51
2021/12/27 05:55:22;;;;;;;6.60;6.00;;;;;;;21.36;29.23;94510.94;4921484;28;102817;-51
2021/12/27 05:57:47;;;;;;;7.67;6.97;;;;;;;21.34;29.15;94507.81;4922540;28;103362;-51
2021/12/27 06:00:14;;;;;;;6.80;6.20;;;;;;;21.35;29.16;94517.34;4916389;28;102637;-51
2021/12/27 06:02:40;;;;;;;6.87;6.27;;;;;;;21.34;29.06;94513.13;4922330;28;102697;-51
2021/12/27 06:05:06;;;;;;;6.30;5.80;;;;;;;21.34;29.00;94503.28;4921805;28;102862;-51
2021/12/27 06:07:32;;;;;;;7.17;6.57;;;;;;;21.35;29.00;94522.66;4921995;28;102730;-51
2021/12/27 06:09:57;;;;;;;6.97;6.37;;;;;;;21.35;28.89;94504.84;4921808;28;102495;-51
2021/12/27 06:12:24;;;;;;;7.80;7.10;;;;;;;21.35;28.99;94498.75;4917305;28;103361;-51
2021/12/27 06:14:49;;;;;;;7.03;6.43;;;;;;;21.35;29.16;94498.75;4920839;28;102835;-51
2021/12/27 06:17:15;;;;;;;6.97;6.43;;;;;;;21.34;28.94;94500.63;4902664;28;102750;-51
2021/12/27 06:19:40;;;;;;;7.30;6.70;;;;;;;21.34;29.17;94483.91;4902151;28;103458;-51
2021/12/27 06:22:06;;;;;;;7.33;6.73;;;;;;;21.34;29.21;94491.88;4898012;28;103127;-51
2021/12/27 06:24:32;;;;;;;7.53;6.83;;;;;;;21.35;28.98;94496.09;4900949;28;102756;-50
2021/12/27 06:26:57;;;;;;;6.70;6.20;;;;;;;21.34;28.96;94497.97;4902145;28;102738;-51
2021/12/27 06:29:23;;;;;;;7.20;6.50;;;;;;;21.34;29.00;94482.03;4901625;28;103204;-51
2021/12/27 06:31:48;;;;;;;7.00;6.40;;;;;;;21.34;29.08;94503.28;4902300;28;102717;-51
2021/12/27 06:34:14;;;;;;;7.10;6.40;;;;;;;21.35;28.97;94498.75;4897901;28;102794;-51
2021/12/27 06:36:40;;;;;;;6.40;5.90;;;;;;;21.36;28.99;94508.28;4902706;28;102756;-51
2021/12/27 06:39:08;;;;;;;7.80;6.40;;;;;;;21.36;29.19;94498.44;4901685;28;103887;-51
2021/12/27 06:41:34;;;;;;;7.03;6.43;;;;;;;21.34;28.94;94487.34;4901209;28;103333;-51
2021/12/27 06:44:00;;;;;;;6.57;6.07;;;;;;;21.35;29.14;94483.59;4897312;28;104025;-51
2021/12/27 06:46:26;;;;;;;6.90;6.30;;;;;;;21.35;29.02;94465.00;4901398;28;102832;-51
2021/12/27 06:48:52;;;;;;;7.13;6.53;;;;;;;21.35;29.03;94469.53;4901461;28;103270;-51
2021/12/27 06:51:18;;;;;;;6.97;6.37;;;;;;;21.37;28.89;94467.34;4901575;28;103317;-51
2021/12/27 06:53:43;;;;;;;7.33;6.73;;;;;;;21.35;29.03;94472.19;4901938;28;102798;-51
2021/12/27 06:56:09;;;;;;;6.43;5.83;;;;;;;21.37;28.98;94476.09;4896571;28;102818;-51
2021/12/27 06:58:34;;;;;;;7.40;6.70;;;;;;;21.38;29.14;94477.66;4901873;28;102945;-50
2021/12/27 07:01:00;;;;;;;7.50;6.37;;;;;;;21.39;29.05;94481.88;4901590;28;103483;-50
2021/12/27 07:03:25;;;;;;;6.67;6.17;;;;;;;21.44;28.98;94483.59;4901973;28;102947;-51
2021/12/27 07:05:51;;;;;;;6.63;6.13;;;;;;;21.58;28.97;94476.31;4896544;28;102877;-51
2021/12/27 07:08:18;;;;;;;6.33;5.83;;;;;;;21.59;28.92;94473.34;4899279;28;102922;-51
2021/12/27 07:10:43;;;;;;;7.07;6.47;;;;;;;21.68;28.74;94456.63;4900903;28;103023;-50
2021/12/27 07:13:09;;;;;;;7.30;6.70;;;;;;;21.61;28.80;94465.03;4901328;28;102808;-51
2021/12/27 07:15:41;;;;;;;6.97;6.37;;;;;;;21.57;28.87;94450.81;4907236;28;102803;-51
2021/12/27 07:18:08;;;;;;;6.67;6.17;;;;;;;21.60;28.74;94466.13;4914617;28;103506;-51
2021/12/27 07:20:34;;;;;;;6.87;6.27;;;;;;;21.61;28.84;94473.03;4920758;28;103129;-51
2021/12/27 07:23:00;;;;;;;6.40;5.80;;;;;;;21.63;28.73;94465.50;4920594;28;102549;-51
2021/12/27 07:25:26;;;;;;;6.03;5.53;;;;;;;21.58;28.88;94466.44;4921118;28;102730;-51
2021/12/27 07:27:51;;;;;;;6.57;5.93;;;;;;;21.57;29.00;94464.09;4916597;28;103212;-51
2021/12/27 07:30:17;;;;;;;5.73;5.30;;;;;;;21.55;29.16;94450.34;4917871;28;103203;-51
2021/12/27 07:32:42;;;;;;;6.50;5.90;;;;;;;21.54;29.20;94464.72;4920541;28;102949;-51
2021/12/27 07:35:08;;;;;;;5.57;5.17;;;;;;;21.52;29.07;94466.91;4921234;28;103164;-51
2021/12/27 07:37:34;;;;;;;5.90;5.40;;;;;;;21.52;28.94;94466.91;4919388;28;102625;-51
2021/12/27 07:40:01;;;;;;;5.97;5.47;;;;;;;21.53;29.10;94468.47;4914551;28;102790;-51
2021/12/27 07:42:27;;;;;;;6.10;5.60;;;;;;;21.54;28.95;94472.69;4920295;28;102748;-51
2021/12/27 07:44:52;;;;;;;6.00;5.50;;;;;;;21.53;29.08;94460.50;4920515;28;102688;-51
2021/12/27 07:47:18;;;;;;;6.00;5.50;;;;;;;21.51;29.08;94466.13;4920375;28;102906;-51
2021/12/27 07:49:43;;;;;;;6.37;5.77;;;;;;;21.49;29.07;94470.94;4920812;28;102988;-51
2021/12/27 07:52:09;;;;;;;5.77;5.27;;;;;;;21.47;29.02;94461.72;4914984;28;103591;-51
2021/12/27 07:54:34;;;;;;;6.10;5.57;;;;;;;21.47;29.03;94465.16;4920557;28;102808;-51
2021/12/27 07:57:00;;;;;;;5.43;5.03;;;;;;;21.45;29.38;94474.53;4919454;28;103322;-51
2021/12/27 07:59:27;;;;;;;5.60;5.10;;;;;;;21.46;29.04;94462.81;4919214;28;102711;-51
2021/12/27 08:01:52;;;;;;;5.63;5.13;;;;;;;21.43;29.17;94447.50;4915028;28;102889;-51
2021/12/27 08:04:18;;;;;;;5.60;5.17;;;;;;;21.43;29.06;94455.47;4920748;28;102689;-51
2021/12/27 08:06:44;;;;;;;5.43;5.03;;;;;;;21.43;29.14;94472.19;4919892;28;102965;-50
2021/12/27 08:09:09;;;;;;;5.80;5.37;;;;;;;21.42;29.24;94461.88;4919737;28;102725;-51
2021/12/27 08:11:35;;;;;;;6.13;5.63;;;;;;;21.42;29.02;94453.91;4920188;28;102632;-51
2021/12/27 08:14:00;;;;;;;5.93;5.43;;;;;;;21.42;29.15;94446.72;4914929;28;102905;-51
2021/12/27 08:16:27;;;;;;;5.40;4.90;;;;;;;21.41;29.21;94439.06;4906762;28;103377;-50
2021/12/27 08:18:54;;;;;;;5.30;4.80;;;;;;;21.41;29.20;94433.75;4900436;28;102835;-51
2021/12/27 08:21:22;;;;;;;5.07;4.67;;;;;;;21.40;29.24;94442.81;4900065;28;103273;-51
2021/12/27 08:23:48;;;;;;;5.77;5.27;;;;;;;21.40;29.27;94448.91;4895274;28;102783;-51
2021/12/27 08:26:14;;;;;;;5.03;4.57;;;;;;;21.41;29.33;94437.19;4900252;28;102854;-51
2021/12/27 08:28:42;;;;;;;4.43;4.13;;;;;;;21.40;29.32;94438.28;4899808;28;103432;-51
2021/12/27 08:31:07;;;;;;;4.37;4.07;;;;;;;21.42;29.11;94430.00;4900161;28;103519;-51
2021/12/27 08:33:33;;;;;;;5.20;4.80;;;;;;;21.42;29.32;94427.34;4901283;28;102744;-51
2021/12/27 08:35:58;;;;;;;4.63;4.23;;;;;;;21.41;29.14;94413.25;4894825;28;102881;-51
2021/12/27 08:38:24;;;;;;;4.77;4.37;;;;;;;21.41;29.33;94413.25;4900518;28;104667;-51
2021/12/27 08:40:49;;;;;;;4.70;4.30;;;;;;;21.42;29.46;94416.69;4899612;28;102883;-51
2021/12/27 08:43:15;;;;;;;4.60;4.20;;;;;;;21.43;29.40;94418.25;4900434;28;102683;-51
2021/12/27 08:45:40;;;;;;;3.90;3.60;;;;;;;21.43;29.48;94413.72;4894475;28;102794;-51
2021/12/27 08:48:06;;;;;;;4.90;3.77;;;;;;;21.43;29.40;94411.06;4900694;28;102687;-51
2021/12/27 08:50:32;;;;;;;4.10;3.80;;;;;;;21.47;29.37;94421.84;4900060;28;102830;-51
2021/12/27 08:52:57;;;;;;;4.03;3.73;;;;;;;21.47;29.39;94435.16;4899975;28;102916;-51
2021/12/27 08:55:23;;;;;;;4.37;4.00;;;;;;;21.48;29.37;94412.78;4900077;28;102627;-51
2021/12/27 08:57:49;;;;;;;3.73;3.40;;;;;;;21.49;29.39;94414.34;4894653;28;102771;-51
2021/12/27 09:00:16;;;;;;;3.70;3.40;;;;;;;21.50;29.35;94402.63;4899622;28;102725;-51
2021/12/27 09:02:45;;;;;;;4.27;3.87;;;;;;;21.49;29.24;94407.16;4900698;28;102716;-51
2021/12/27 09:05:12;;;;;;;3.87;3.57;;;;;;;21.51;29.38;94404.22;4899222;28;103242;-50
2021/12/27 09:07:37;;;;;;;4.10;3.80;;;;;;;21.53;29.26;94420.63;4895106;28;103118;-51
2021/12/27 09:10:04;;;;;;;4.00;3.70;;;;;;;21.52;29.32;94401.25;4899753;28;103358;-51
2021/12/27 09:12:30;;;;;;;3.90;3.60;;;;;;;21.53;28.75;94394.06;4900163;28;103265;-51
2021/12/27 09:14:55;;;;;;;3.20;2.90;;;;;;;21.54;29.33;94391.09;4901316;28;103053;-51
2021/12/27 09:17:21;;;;;;;3.73;3.43;;;;;;;21.54;29.43;94380.47;4919853;28;103720;-51
2021/12/27 09:19:46;;;;;;;3.30;3.07;;;;;;;21.55;29.35;94376.69;4913861;28;102942;-51
2021/12/27 09:22:15;;;;;;;3.73;3.43;;;;;;;21.56;29.81;94372.16;4919450;28;102684;-51
2021/12/27 09:24:41;;;;;;;3.47;3.17;;;;;;;21.56;29.36;94372.16;4919409;28;103135;-51
2021/12/27 09:27:06;;;;;;;3.37;3.13;;;;;;;21.55;29.41;94371.38;4919205;28;102639;-51
2021/12/27 09:29:32;;;;;;;6.20;3.93;;;;;;;21.57;29.43;94373.72;4911705;28;102834;-51
2021/12/27 09:31:57;;;;;;;3.03;2.83;;;;;;;21.57;29.33;94357.78;4919682;28;102808;-51
2021/12/27 09:34:23;;;;;;;2.90;2.70;;;;;;;21.58;29.51;94354.81;4918980;28;102721;-51
2021/12/27 09:36:49;;;;;;;3.33;3.03;;;;;;;21.59;29.54;94350.28;4919339;28;103427;-51
2021/12/27 09:39:15;;;;;;;3.00;2.80;;;;;;;21.59;29.47;94350.28;4919038;28;102807;-51
2021/12/27 09:41:41;;;;;;;3.80;3.50;;;;;;;21.60;29.47;94354.50;4913524;28;102942;-51
2021/12/27 09:44:06;;;;;;;3.67;3.37;;;;;;;21.61;29.50;94364.03;4918561;28;102669;-51
2021/12/27 09:46:32;;;;;;;3.20;3.00;;;;;;;21.60;29.46;94357.16;4918944;28;102791;-51
2021/12/27 09:49:00;;;;;;;3.20;2.90;;;;;;;21.60;29.41;94367.78;4918758;28;103222;-51
2021/12/27 09:51:26;;;;;;;2.97;2.77;;;;;;;21.61;29.66;94356.06;4915151;28;103184;-51
2021/12/27 09:53:52;;;;;;;2.90;2.67;;;;;;;21.60;29.29;94357.94;4917996;28;102967;-51
2021/12/27 09:56:18;;;;;;;3.13;2.93;;;;;;;21.60;29.29;94357.94;4918694;28;102653;-51
2021/12/27 09:58:44;;;;;;;2.80;2.60;;;;;;;21.61;29.44;94354.19;4917899;28;102698;-51
2021/12/27 10:01:09;;;;;;;3.67;3.37;;;;;;;21.60;29.59;94344.66;4919143;28;102743;-50
2021/12/27 10:03:54;;;;;;;2.87;2.67;;;;;;;21.61;29.42;94348.09;4912719;28;103311;-51
2021/12/27 10:06:22;;;;;;;2.57;2.37;;;;;;;21.63;29.36;94340.56;4918110;28;102767;-51
2021/12/27 10:08:52;;;;;;;3.07;2.77;;;;;;;21.61;29.24;94348.09;4918256;28;102898;-50
2021/12/27 10:11:29;;;;;;;2.80;2.60;;;;;;;21.61;29.47;94356.06;4918666;28;102809;-51
2021/12/27 10:14:06;;;;;;;2.47;2.27;;;;;;;21.61;29.38;94343.53;4913782;28;103380;-51
2021/12/27 10:16:35;;;;;;;2.83;2.63;;;;;;;21.60;29.43;94351.84;4905456;28;103429;-51
2021/12/27 10:19:05;;;;;;;2.60;2.40;;;;;;;21.60;29.47;94351.84;4902460;28;103044;-51
2021/12/27 10:21:31;;;;;;;2.57;2.37;;;;;;;21.61;29.40;94364.03;4903242;28;102821;-51
2021/12/27 10:24:06;;;;;;;2.73;2.50;;;;;;;21.60;29.36;94357.16;4901740;28;102828;-51
2021/12/27 10:26:32;;;;;;;3.00;2.70;;;;;;;21.60;29.24;94354.50;4899769;28;103252;-52
2021/12/27 10:29:11;;;;;;;2.57;2.37;;;;;;;21.59;29.25;94343.09;4884649;28;103097;-51
2021/12/27 10:31:55;;;;;;;3.13;2.93;;;;;;;21.60;29.31;94341.19;4903130;28;103266;-51
2021/12/27 10:34:23;;;;;;;2.87;2.67;;;;;;;21.59;29.42;94344.97;4902080;28;103644;-51
2021/12/27 10:37:29;;;;;;;3.10;2.90;;;;;;;21.60;29.41;94347.31;4896458;28;103496;-51
2021/12/27 10:40:01;;;;;;;2.90;2.63;;;;;;;21.61;29.16;94342.75;4890774;28;102960;-51
2021/12/27 10:42:38;;;;;;;2.37;2.17;;;;;;;21.60;29.34;94333.22;4900250;28;102795;-51
2021/12/27 10:45:16;;;;;;;2.60;2.40;;;;;;;21.61;29.33;94310.88;4902160;28;103374;-51
2021/12/27 10:47:57;;;;;;;2.53;2.33;;;;;;;21.59;29.44;94329.00;4896881;28;102778;-51
2021/12/27 10:50:26;;;;;;;2.67;2.47;;;;;;;21.59;29.41;94331.66;4900656;28;102881;-51
2021/12/27 10:53:01;;;;;;;2.70;2.50;;;;;;;21.58;29.40;94312.28;4902197;28;102763;-51
2021/12/27 10:55:39;;;;;;;2.63;2.30;;;;;;;21.59;29.29;94302.44;4901920;28;102774;-51
2021/12/27 10:58:13;;;;;;;3.00;2.57;;;;;;;21.59;29.50;94302.44;4896567;28;103363;-51
2021/12/27 11:00:40;;;;;;;2.37;2.17;;;;;;;21.59;29.16;94305.88;4901898;28;102758;-51
2021/12/27 11:03:05;;;;;;;3.13;2.80;;;;;;;21.59;29.26;94297.91;4902081;28;102667;-51
2021/12/27 11:05:34;;;;;;;2.70;2.50;;;;;;;21.59;29.47;94318.38;4901653;28;102700;-51
2021/12/27 11:08:01;;;;;;;2.43;2.23;;;;;;;21.59;29.38;94313.84;4902482;28;103262;-50
2021/12/27 11:10:35;;;;;;;2.53;2.33;;;;;;;21.57;29.31;94308.06;4896197;28;102799;-51
2021/12/27 11:13:03;;;;;;;2.73;2.53;;;;;;;21.58;29.43;94306.19;4901854;28;102816;-51
2021/12/27 11:15:31;;;;;;;2.63;2.43;;;;;;;21.58;29.41;94306.19;4907179;28;103147;-51
2021/12/27 11:17:58;;;;;;;2.83;2.63;;;;;;;21.58;29.43;94308.84;4921234;28;103615;-51
2021/12/27 11:20:24;;;;;;;2.60;2.40;;;;;;;21.58;29.44;94311.50;4914889;28;102596;-51
2021/12/27 11:22:54;;;;;;;2.47;2.27;;;;;;;21.58;29.44;94306.97;4921674;28;102637;-51
2021/12/27 11:25:33;;;;;;;2.57;2.27;;;;;;;21.57;29.49;94313.38;4920701;28;103132;-51
2021/12/27 11:28:00;;;;;;;2.00;1.90;;;;;;;21.57;29.52;94300.09;4920240;28;102604;-51